Time;durP1;ratioP1;P1;durP2;ratioP2;P2;SDS_P1;SDS_P2;PMS_P1;PMS_P2;Temp;Humidity;BMP_temperature;BMP_pressure;BME280_temperature;BME280_humidity;BME280_pressure;Samples;Min_cycle;Max_cycle;Signal;HPM_P1;HPM_P2
2021/12/14 00:00:54;;;;;;;6.68;1.50;;;8.40;99.90;;;;;;5018348;28;20592;-64
2021/12/14 00:03:31;;;;;;;6.05;1.73;;;8.40;99.90;;;;;;5019372;28;21140;-64
2021/12/14 00:05:57;;;;;;;4.93;2.00;;;8.20;99.90;;;;;;5018291;28;20390;-64
2021/12/14 00:08:26;;;;;;;4.95;1.95;;;8.30;99.90;;;;;;5014909;28;20030;-64
2021/12/14 00:11:24;;;;;;;5.55;1.50;;;8.30;99.90;;;;;;5014290;28;20100;-64
2021/12/14 00:13:54;;;;;;;3.83;1.35;;;8.30;99.90;;;;;;5019283;28;20493;-64
2021/12/14 00:16:20;;;;;;;4.72;1.60;;;8.30;99.90;;;;;;5020065;28;20049;-64
2021/12/14 00:18:46;;;;;;;4.55;1.58;;;8.30;99.90;;;;;;5013860;28;20705;-64
2021/12/14 00:21:29;;;;;;;4.90;1.55;;;8.30;99.90;;;;;;5012773;28;20413;-64
2021/12/14 00:24:14;;;;;;;4.55;1.95;;;8.30;99.90;;;;;;5012575;28;20121;-64
2021/12/14 00:26:45;;;;;;;5.35;1.80;;;8.20;99.90;;;;;;5013837;28;20029;-64
2021/12/14 00:29:20;;;;;;;4.45;1.60;;;8.30;99.90;;;;;;5019374;28;20031;-64
2021/12/14 00:31:47;;;;;;;2.58;1.27;;;8.20;99.90;;;;;;5013443;28;20133;-64
2021/12/14 00:34:21;;;;;;;4.05;1.48;;;8.20;99.90;;;;;;5016681;28;20084;-64
2021/12/14 00:36:47;;;;;;;2.80;1.35;;;8.20;99.90;;;;;;5019104;28;20448;-64
2021/12/14 00:39:13;;;;;;;3.45;1.17;;;8.20;99.90;;;;;;5014863;28;20460;-64
2021/12/14 00:41:40;;;;;;;3.67;1.55;;;8.20;99.90;;;;;;5016703;28;20464;-63
2021/12/14 00:44:08;;;;;;;4.30;1.40;;;8.20;99.90;;;;;;5016846;28;20017;-64
2021/12/14 00:46:36;;;;;;;3.25;1.40;;;8.20;99.90;;;;;;5019295;28;20045;-64
2021/12/14 00:49:05;;;;;;;3.28;1.42;;;8.20;99.90;;;;;;5020306;28;20484;-64
2021/12/14 00:51:30;;;;;;;3.67;1.40;;;8.20;99.90;;;;;;5015577;28;20559;-64
2021/12/14 00:54:02;;;;;;;3.88;1.30;;;8.20;99.90;;;;;;5017887;28;20031;-64
2021/12/14 00:56:28;;;;;;;3.78;1.63;;;8.10;99.90;;;;;;5015784;28;20032;-64
2021/12/14 00:58:54;;;;;;;2.63;1.35;;;8.20;99.90;;;;;;5016491;28;20112;-64
2021/12/14 01:01:29;;;;;;;3.03;1.50;;;8.20;99.90;;;;;;5025890;28;20446;-64
2021/12/14 01:04:00;;;;;;;1.60;1.20;;;8.20;99.90;;;;;;5024437;28;20029;-64
2021/12/14 01:06:29;;;;;;;3.65;1.50;;;8.20;99.90;;;;;;5016255;28;20133;-63
2021/12/14 01:08:55;;;;;;;3.72;1.63;;;8.20;99.90;;;;;;5023608;28;20536;-64
2021/12/14 01:11:32;;;;;;;3.83;1.80;;;8.20;99.90;;;;;;5024780;28;20021;-64
2021/12/14 01:14:05;;;;;;;2.90;1.17;;;8.20;99.90;;;;;;5024736;28;20116;-64
2021/12/14 01:16:54;;;;;;;4.07;1.70;;;8.20;99.90;;;;;;5021924;28;20029;-64
2021/12/14 01:19:29;;;;;;;3.97;1.38;;;8.20;99.90;;;;;;5018565;28;20026;-64
2021/12/14 01:25:00;;;;;;;2.97;1.58;;;8.20;99.90;;;;;;5016473;28;20108;-64
2021/12/14 01:27:26;;;;;;;11.38;1.40;;;8.10;99.90;;;;;;5015542;28;20026;-64
2021/12/14 01:29:54;;;;;;;4.22;1.50;;;8.10;99.90;;;;;;5015554;28;20083;-64
2021/12/14 01:32:24;;;;;;;4.07;1.65;;;8.20;99.90;;;;;;5019037;28;20025;-64
2021/12/14 01:34:50;;;;;;;;;;;8.20;99.90;;;;;;5016344;28;20497;-64
2021/12/14 01:37:20;;;;;;;4.65;1.25;;;8.10;99.90;;;;;;5017946;28;19959;-64
2021/12/14 01:40:02;;;;;;;5.40;1.77;;;8.10;99.90;;;;;;5020137;28;20021;-64
2021/12/14 01:42:35;;;;;;;4.32;1.67;;;8.10;99.90;;;;;;5021483;28;20037;-64
2021/12/14 01:45:11;;;;;;;4.80;1.45;;;8.10;99.90;;;;;;5021614;28;20040;-64
2021/12/14 01:47:42;;;;;;;4.00;1.75;;;8.10;99.90;;;;;;5026866;28;20079;-64
2021/12/14 01:50:19;;;;;;;4.53;1.75;;;8.10;99.90;;;;;;5026570;28;20049;-64
2021/12/14 01:52:46;;;;;;;4.25;1.50;;;8.10;99.90;;;;;;5027615;28;20033;-64
2021/12/14 01:55:20;;;;;;;4.43;1.55;;;8.10;99.90;;;;;;5026464;28;20037;-64
2021/12/14 01:57:47;;;;;;;6.65;1.42;;;8.00;99.90;;;;;;5027373;28;20155;-64
2021/12/14 02:00:20;;;;;;;2.92;1.15;;;8.10;99.90;;;;;;5027224;28;20033;-64
2021/12/14 02:02:47;;;;;;;3.53;1.25;;;8.20;99.90;;;;;;5028679;28;20313;-64
2021/12/14 02:05:29;;;;;;;4.95;1.58;;;8.20;99.90;;;;;;5026093;28;20061;-64
2021/12/14 02:07:56;;;;;;;4.32;1.52;;;8.10;99.90;;;;;;5021951;28;20045;-64
2021/12/14 02:10:27;;;;;;;2.53;1.30;;;8.00;99.90;;;;;;5024658;28;20022;-64
2021/12/14 02:12:53;;;;;;;7.82;1.75;;;8.10;99.90;;;;;;5025883;28;20045;-64
2021/12/14 02:15:26;;;;;;;4.80;1.90;;;8.10;99.90;;;;;;5023828;28;20081;-64
2021/12/14 02:17:54;;;;;;;5.07;1.70;;;8.20;99.90;;;;;;5020869;28;20385;-64
2021/12/14 02:20:24;;;;;;;5.05;2.03;;;8.20;99.90;;;;;;5020165;28;20080;-64
2021/12/14 02:22:50;;;;;;;6.72;1.92;;;8.10;99.90;;;;;;5021693;28;20176;-64
2021/12/14 02:25:17;;;;;;;3.58;1.75;;;8.10;99.90;;;;;;5025646;28;20013;-64
2021/12/14 02:27:46;;;;;;;8.23;2.08;;;8.10;99.90;;;;;;5025428;28;20025;-64
2021/12/14 02:30:17;;;;;;;5.88;1.92;;;8.00;99.90;;;;;;5022286;28;20123;-64
2021/12/14 02:32:44;;;;;;;6.25;2.30;;;8.00;99.90;;;;;;5020823;28;20018;-64
2021/12/14 02:35:13;;;;;;;5.68;1.92;;;8.00;99.90;;;;;;5021305;28;20432;-64
2021/12/14 02:37:47;;;;;;;5.18;1.75;;;8.00;99.90;;;;;;5022229;28;20022;-64
2021/12/14 02:40:53;;;;;;;5.63;1.85;;;7.90;99.90;;;;;;5021919;28;20032;-64
2021/12/14 02:43:20;;;;;;;5.40;2.10;;;8.00;99.90;;;;;;5028410;28;20140;-64
2021/12/14 02:45:46;;;;;;;4.35;1.95;;;8.00;99.90;;;;;;5026951;28;20025;-64
2021/12/14 02:48:11;;;;;;;5.78;2.08;;;8.00;99.90;;;;;;5027861;28;20021;-64
2021/12/14 02:50:38;;;;;;;4.82;1.73;;;8.00;99.90;;;;;;5027183;28;20035;-64
2021/12/14 02:53:05;;;;;;;10.63;2.13;;;7.90;99.90;;;;;;5030036;28;20033;-64
2021/12/14 02:55:31;;;;;;;6.93;2.47;;;7.90;99.90;;;;;;5024836;28;20030;-64
2021/12/14 02:57:59;;;;;;;6.50;1.98;;;7.90;99.90;;;;;;5027168;28;20505;-65
2021/12/14 03:00:29;;;;;;;6.55;2.42;;;7.90;99.90;;;;;;5019240;28;20030;-64
2021/12/14 03:02:56;;;;;;;;;;;7.90;99.90;;;;;;5025740;28;20057;-64
2021/12/14 03:05:26;;;;;;;15.45;1.77;;;7.90;99.90;;;;;;5021221;28;19995;-64
2021/12/14 03:07:58;;;;;;;4.25;2.15;;;7.80;99.90;;;;;;5006016;28;20042;-64
2021/12/14 03:12:57;;;;;;;6.65;2.22;;;7.90;99.90;;;;;;5026132;28;20088;-64
2021/12/14 03:15:25;;;;;;;6.63;3.03;;;7.90;99.90;;;;;;5025340;28;20021;-64
2021/12/14 03:17:55;;;;;;;5.22;2.17;;;7.90;99.90;;;;;;5018675;28;20598;-64
2021/12/14 03:20:41;;;;;;;6.97;2.42;;;7.80;99.90;;;;;;5015229;28;20469;-64
2021/12/14 03:23:12;;;;;;;7.95;2.85;;;7.70;99.90;;;;;;5019991;28;20026;-64
2021/12/14 03:25:42;;;;;;;8.30;2.88;;;7.70;99.90;;;;;;5015486;28;20021;-63
2021/12/14 03:28:08;;;;;;;;;;;7.70;99.90;;;;;;5024943;28;20115;-64
2021/12/14 03:30:42;;;;;;;12.98;3.88;;;7.80;99.90;;;;;;5021505;28;20324;-64
2021/12/14 03:33:17;;;;;;;6.13;2.25;;;7.70;99.90;;;;;;5018134;28;20040;-63
2021/12/14 03:36:03;;;;;;;6.95;1.83;;;7.70;99.90;;;;;;5025956;28;20013;-64
2021/12/14 03:38:48;;;;;;;5.45;2.75;;;7.70;99.90;;;;;;5026255;28;20312;-64
2021/12/14 03:41:24;;;;;;;9.35;2.15;;;7.70;99.90;;;;;;5021117;28;20021;-64
2021/12/14 03:44:04;;;;;;;7.35;3.13;;;7.70;99.90;;;;;;5019688;28;20068;-64
2021/12/14 03:46:35;;;;;;;6.55;2.55;;;7.80;99.90;;;;;;5025361;28;20121;-64
2021/12/14 03:49:02;;;;;;;;;;;7.70;99.90;;;;;;5019293;28;20026;-64
2021/12/14 03:51:28;;;;;;;4.28;2.15;;;7.80;99.90;;;;;;5025799;28;19909;-64
2021/12/14 03:53:56;;;;;;;16.45;3.17;;;7.80;99.90;;;;;;5023289;28;20080;-64
2021/12/14 03:56:22;;;;;;;8.68;2.30;;;7.80;99.90;;;;;;5025378;28;20025;-64
2021/12/14 03:58:48;;;;;;;5.45;2.47;;;7.70;99.90;;;;;;5022988;28;20517;-63
2021/12/14 04:01:42;;;;;;;3.83;1.90;;;7.70;99.90;;;;;;5023563;28;20021;-63
2021/12/14 04:04:19;;;;;;;4.97;2.22;;;7.70;99.90;;;;;;5014282;28;20103;-64
2021/12/14 04:06:49;;;;;;;12.10;3.40;;;7.70;99.90;;;;;;5023119;28;20121;-64
2021/12/14 04:09:16;;;;;;;9.35;2.80;;;7.70;99.90;;;;;;5025194;28;20377;-64
2021/12/14 04:11:42;;;;;;;16.25;3.80;;;7.70;99.90;;;;;;5026343;28;20371;-64
2021/12/14 04:14:09;;;;;;;10.98;3.22;;;7.80;99.90;;;;;;5025163;28;20056;-64
2021/12/14 04:16:37;;;;;;;11.55;3.30;;;7.80;99.90;;;;;;5024092;28;20029;-64
2021/12/14 04:19:09;;;;;;;7.50;2.88;;;7.70;99.90;;;;;;5024209;28;20367;-64
2021/12/14 04:21:38;;;;;;;6.88;2.42;;;7.70;99.90;;;;;;5022954;28;20028;-64
2021/12/14 04:24:06;;;;;;;13.23;3.80;;;7.70;99.90;;;;;;5025220;28;20048;-64
2021/12/14 04:26:32;;;;;;;11.10;4.03;;;7.70;99.90;;;;;;5021610;28;20128;-65
2021/12/14 04:28:59;;;;;;;8.57;2.13;;;7.60;99.90;;;;;;5020552;28;20105;-64
2021/12/14 04:31:26;;;;;;;9.63;3.70;;;7.70;99.90;;;;;;5018255;28;20254;-64
2021/12/14 04:33:53;;;;;;;8.60;2.67;;;7.60;99.90;;;;;;5025176;28;20433;-63
2021/12/14 04:36:24;;;;;;;8.05;2.88;;;7.70;99.90;;;;;;5027794;28;20481;-64
2021/12/14 04:39:32;;;;;;;7.28;2.38;;;7.70;99.90;;;;;;5027101;28;20032;-65
2021/12/14 04:52:54;;;;;;;7.68;2.97;;;7.70;99.90;;;;;;5029667;28;20036;-64
2021/12/14 04:55:20;;;;;;;10.63;3.58;;;7.70;99.90;;;;;;5026300;28;20104;-64
2021/12/14 04:57:47;;;;;;;9.57;2.75;;;7.70;99.90;;;;;;5029466;28;20013;-64
2021/12/14 05:00:48;;;;;;;10.25;3.17;;;7.70;99.90;;;;;;5025121;28;20071;-65
2021/12/14 05:03:18;;;;;;;15.70;4.18;;;7.70;99.90;;;;;;5023613;28;20033;-64
2021/12/14 05:05:50;;;;;;;10.80;2.92;;;7.70;99.90;;;;;;5025345;28;20105;-64
2021/12/14 05:11:00;;;;;;;12.80;3.28;;;7.70;99.90;;;;;;5024449;28;20045;-64
2021/12/14 05:13:43;;;;;;;9.52;2.40;;;7.80;99.90;;;;;;5023260;28;20013;-64
2021/12/14 05:16:14;;;;;;;8.77;3.67;;;7.80;99.90;;;;;;5026455;28;20025;-64
2021/12/14 05:18:47;;;;;;;11.05;2.90;;;7.70;99.90;;;;;;5028722;28;20033;-64
2021/12/14 05:21:12;;;;;;;6.63;2.72;;;7.70;99.90;;;;;;5025438;28;20541;-64
2021/12/14 05:23:38;;;;;;;8.70;3.15;;;7.60;99.90;;;;;;5025936;28;20060;-64
2021/12/14 05:26:06;;;;;;;12.32;2.67;;;7.70;99.90;;;;;;5024939;28;20033;-65
2021/12/14 05:28:33;;;;;;;10.48;3.53;;;7.70;99.90;;;;;;5025680;28;20024;-64
2021/12/14 05:30:59;;;;;;;6.78;2.53;;;7.70;99.90;;;;;;5023268;28;20692;-64
2021/12/14 05:33:33;;;;;;;7.05;2.75;;;7.70;99.90;;;;;;5026856;28;20100;-64
2021/12/14 05:36:03;;;;;;;10.25;3.72;;;7.70;99.90;;;;;;5025084;28;20040;-64
2021/12/14 05:38:50;;;;;;;13.60;4.28;;;7.70;99.90;;;;;;5026337;28;20029;-64
2021/12/14 05:44:16;;;;;;;10.15;4.18;;;7.60;99.90;;;;;;5004740;28;20493;-64
2021/12/14 05:46:50;;;;;;;17.30;4.18;;;7.60;99.90;;;;;;5025597;28;20500;-64
2021/12/14 05:49:24;;;;;;;9.48;3.95;;;7.40;99.90;;;;;;5026330;28;20402;-64
2021/12/14 05:51:52;;;;;;;17.00;5.65;;;7.40;99.90;;;;;;5027144;28;20045;-64
2021/12/14 05:54:32;;;;;;;14.38;4.32;;;7.40;99.90;;;;;;5020691;28;20071;-65
2021/12/14 05:57:01;;;;;;;9.05;2.80;;;7.40;99.90;;;;;;5023838;28;20049;-64
2021/12/14 05:59:30;;;;;;;15.48;3.78;;;7.40;99.90;;;;;;5024361;28;20030;-64
2021/12/14 06:01:56;;;;;;;9.05;2.88;;;7.40;99.90;;;;;;5024781;28;20446;-64
2021/12/14 06:04:26;;;;;;;11.35;4.45;;;7.30;99.90;;;;;;5026259;28;20429;-65
2021/12/14 06:06:54;;;;;;;12.03;4.10;;;7.40;99.90;;;;;;5025853;28;20132;-65
2021/12/14 06:09:29;;;;;;;8.80;3.67;;;7.30;99.90;;;;;;5023581;28;20248;-64
2021/12/14 06:12:07;;;;;;;8.00;3.00;;;7.40;99.90;;;;;;5021957;28;20032;-64
2021/12/14 06:14:40;;;;;;;14.75;4.43;;;7.30;99.90;;;;;;5024653;28;20037;-64
2021/12/14 06:17:06;;;;;;;7.63;3.22;;;7.20;99.90;;;;;;5022535;28;20389;-64
2021/12/14 06:19:48;;;;;;;13.30;4.85;;;7.30;99.90;;;;;;5026922;28;20025;-64
2021/12/14 06:22:17;;;;;;;16.10;3.70;;;7.30;99.90;;;;;;5021322;28;20136;-64
2021/12/14 06:24:46;;;;;;;9.80;3.72;;;7.20;99.90;;;;;;5017191;28;20057;-64
2021/12/14 06:27:15;;;;;;;14.68;4.55;;;7.20;99.90;;;;;;5022952;28;20052;-65
2021/12/14 06:29:50;;;;;;;7.43;3.03;;;7.20;99.90;;;;;;5023105;28;20032;-65
2021/12/14 06:32:28;;;;;;;9.73;3.75;;;7.30;99.90;;;;;;5023109;28;20013;-64
2021/12/14 06:35:01;;;;;;;10.80;3.58;;;7.30;99.90;;;;;;5024729;28;20112;-64
2021/12/14 06:40:38;;;;;;;12.55;4.28;;;7.30;99.90;;;;;;5024779;28;20497;-64
2021/12/14 06:43:14;;;;;;;9.35;3.63;;;7.20;99.90;;;;;;5024127;28;20029;-64
2021/12/14 06:45:55;;;;;;;7.80;2.90;;;7.20;99.90;;;;;;5020877;28;20029;-64
2021/12/14 06:48:30;;;;;;;10.38;3.40;;;7.30;99.90;;;;;;5022074;28;20036;-64
2021/12/14 06:51:05;;;;;;;15.07;4.55;;;7.20;99.90;;;;;;5013323;28;20022;-64
2021/12/14 06:53:32;;;;;;;11.43;4.95;;;7.20;99.90;;;;;;5022121;28;20043;-64
2021/12/14 06:56:00;;;;;;;10.32;4.60;;;7.20;99.90;;;;;;5021344;28;20062;-64
2021/12/14 06:58:29;;;;;;;11.25;4.20;;;7.20;99.90;;;;;;5024605;28;20313;-65
2021/12/14 07:01:21;;;;;;;11.30;4.40;;;7.20;99.90;;;;;;5023751;28;20033;-64
2021/12/14 07:04:02;;;;;;;10.45;4.20;;;7.20;99.90;;;;;;5022297;28;20113;-64
2021/12/14 07:06:34;;;;;;;12.65;4.10;;;7.30;99.90;;;;;;5016293;28;20045;-64
2021/12/14 07:09:12;;;;;;;14.23;3.58;;;7.30;99.90;;;;;;5018700;28;20052;-64
2021/12/14 07:11:42;;;;;;;13.38;4.18;;;7.40;99.90;;;;;;5023096;28;20036;-64
2021/12/14 07:14:28;;;;;;;11.45;3.63;;;7.40;99.90;;;;;;5021204;28;20084;-64
2021/12/14 07:16:58;;;;;;;12.68;3.53;;;7.30;99.90;;;;;;5020930;28;20040;-65
2021/12/14 07:19:55;;;;;;;13.65;4.22;;;7.40;99.90;;;;;;5089695;27;20406;-63
2021/12/14 07:22:30;;;;;;;16.38;5.05;;;7.30;99.90;;;;;;5091819;28;20031;-63
2021/12/14 07:25:23;;;;;;;11.30;3.55;;;7.30;99.90;;;;;;5085870;28;20028;-63
2021/12/14 07:28:00;;;;;;;13.30;4.10;;;7.30;99.90;;;;;;5090204;28;20020;-63
2021/12/14 07:30:40;;;;;;;12.75;4.32;;;7.30;99.90;;;;;;5098327;28;20404;-63
2021/12/14 07:33:10;;;;;;;17.55;4.47;;;7.30;99.90;;;;;;5095327;28;20387;-65
2021/12/14 07:35:56;;;;;;;9.95;3.65;;;7.40;99.90;;;;;;5082122;28;20036;-64
2021/12/14 07:38:27;;;;;;;11.43;3.95;;;7.40;99.90;;;;;;5083935;28;20079;-64
2021/12/14 07:40:59;;;;;;;11.05;3.67;;;7.40;99.90;;;;;;5088513;28;20063;-64
2021/12/14 07:43:27;;;;;;;14.00;5.15;;;7.40;99.90;;;;;;5089766;28;20024;-64
2021/12/14 07:45:54;;;;;;;16.38;4.70;;;7.30;99.90;;;;;;5094041;28;20479;-64
2021/12/14 07:48:21;;;;;;;12.88;4.10;;;7.40;99.90;;;;;;5090028;28;20033;-64
2021/12/14 07:50:56;;;;;;;8.63;3.75;;;7.40;99.90;;;;;;5083957;28;20032;-64
2021/12/14 07:53:32;;;;;;;17.85;4.75;;;7.40;99.90;;;;;;5096198;28;20024;-64
2021/12/14 07:55:58;;;;;;;10.52;3.90;;;7.40;99.90;;;;;;5086524;28;20556;-64
2021/12/14 07:58:38;;;;;;;6.43;3.15;;;7.40;99.90;;;;;;5085204;28;20096;-64
2021/12/14 08:01:07;;;;;;;10.85;4.03;;;7.40;99.90;;;;;;5085191;28;20467;-64
2021/12/14 08:03:33;;;;;;;14.75;5.75;;;7.40;99.90;;;;;;5096560;28;20203;-63
2021/12/14 08:06:07;;;;;;;10.93;3.33;;;7.40;99.90;;;;;;5088090;28;20012;-63
2021/12/14 08:08:45;;;;;;;15.20;4.32;;;7.50;99.90;;;;;;5090451;28;20439;-64
2021/12/14 08:14:05;;;;;;;11.38;4.38;;;7.40;99.90;;;;;;5095870;28;20028;-63
2021/12/14 08:16:52;;;;;;;9.25;3.60;;;7.40;99.90;;;;;;5091238;28;20024;-64
2021/12/14 08:19:38;;;;;;;11.85;3.83;;;7.50;99.90;;;;;;5088121;28;20562;-64
2021/12/14 08:22:13;;;;;;;9.10;4.07;;;7.50;99.90;;;;;;5084092;28;20356;-64
2021/12/14 08:24:39;;;;;;;17.83;4.00;;;7.50;99.90;;;;;;5080811;28;20051;-64
2021/12/14 08:27:07;;;;;;;13.02;4.93;;;7.50;99.90;;;;;;5080050;28;20051;-63
2021/12/14 08:29:35;;;;;;;10.05;3.47;;;7.60;99.90;;;;;;5075812;28;20028;-63
2021/12/14 08:32:11;;;;;;;13.93;4.53;;;7.60;99.90;;;;;;5069935;28;20027;-65
2021/12/14 08:34:48;;;;;;;13.75;4.95;;;7.50;99.90;;;;;;5075804;28;20021;-64
2021/12/14 08:37:45;;;;;;;13.40;5.22;;;7.50;99.90;;;;;;5068647;28;20024;-64
2021/12/14 08:40:24;;;;;;;9.52;3.58;;;7.60;99.90;;;;;;5077429;28;20017;-64
2021/12/14 08:43:08;;;;;;;10.73;4.10;;;7.60;99.90;;;;;;5075268;28;20020;-64
2021/12/14 08:46:05;;;;;;;10.50;3.67;;;7.60;99.90;;;;;;5068219;28;20031;-64
2021/12/14 08:48:36;;;;;;;14.48;5.00;;;7.60;99.90;;;;;;5065128;28;20047;-64
2021/12/14 08:51:12;;;;;;;18.23;5.25;;;7.60;99.90;;;;;;5071464;28;20016;-64
2021/12/14 08:53:38;;;;;;;12.80;4.82;;;7.60;99.90;;;;;;5071072;28;20056;-64
2021/12/14 08:56:08;;;;;;;12.63;4.22;;;7.60;99.90;;;;;;5073805;28;20523;-64
2021/12/14 08:58:34;;;;;;;20.27;5.70;;;7.60;99.90;;;;;;5070753;28;20032;-64
2021/12/14 09:01:07;;;;;;;14.02;5.20;;;7.60;99.90;;;;;;5076402;28;20093;-64
2021/12/14 09:03:40;;;;;;;11.50;3.90;;;7.60;99.90;;;;;;5069260;28;20029;-63
2021/12/14 09:06:16;;;;;;;9.25;3.47;;;7.60;99.90;;;;;;5072534;28;20028;-64
2021/12/14 09:08:44;;;;;;;14.93;4.63;;;7.60;99.90;;;;;;5075698;28;20027;-64
2021/12/14 09:11:13;;;;;;;12.18;4.32;;;7.60;99.90;;;;;;5078750;28;20127;-64
2021/12/14 09:13:40;;;;;;;10.65;4.93;;;7.60;99.90;;;;;;5080882;28;20504;-64
2021/12/14 09:16:10;;;;;;;16.02;4.50;;;7.60;99.90;;;;;;5069011;28;20502;-64
2021/12/14 09:18:41;;;;;;;16.73;6.22;;;7.60;99.90;;;;;;5070050;28;20040;-64
2021/12/14 09:21:15;;;;;;;12.65;3.83;;;7.70;99.90;;;;;;5076421;28;20028;-64
2021/12/14 09:23:46;;;;;;;10.32;4.57;;;7.70;99.90;;;;;;5069265;28;20052;-63
2021/12/14 09:26:15;;;;;;;;;;;7.70;99.90;;;;;;5073963;28;20637;-64
2021/12/14 09:28:41;;;;;;;18.27;5.78;;;7.70;99.90;;;;;;5075017;28;20380;-64
2021/12/14 09:31:10;;;;;;;23.55;6.63;;;7.70;99.90;;;;;;5071345;28;20077;-64
2021/12/14 09:33:39;;;;;;;15.45;6.60;;;7.70;99.90;;;;;;5068754;28;20488;-64
2021/12/14 09:36:11;;;;;;;14.40;6.13;;;7.80;99.90;;;;;;5073092;28;20044;-64
2021/12/14 09:38:40;;;;;;;14.07;5.30;;;7.80;99.90;;;;;;5074443;28;20047;-64
2021/12/14 09:41:09;;;;;;;15.73;5.55;;;7.80;99.90;;;;;;5066786;28;20027;-64
2021/12/14 09:43:35;;;;;;;18.33;3.90;;;7.90;99.90;;;;;;5071204;28;20028;-64
2021/12/14 09:46:03;;;;;;;16.42;6.30;;;7.90;99.90;;;;;;5073912;28;20017;-64
2021/12/14 09:48:43;;;;;;;19.25;6.88;;;7.90;99.90;;;;;;5066441;28;20105;-64
2021/12/14 09:51:21;;;;;;;11.77;4.80;;;8.00;99.90;;;;;;5074353;28;20373;-64
2021/12/14 09:53:50;;;;;;;12.65;4.80;;;8.00;99.90;;;;;;5069848;28;20036;-64
2021/12/14 09:56:18;;;;;;;14.13;5.75;;;8.00;99.90;;;;;;5081407;28;20020;-64
2021/12/14 09:58:50;;;;;;;15.80;5.57;;;8.10;99.90;;;;;;5070300;28;20605;-64
2021/12/14 10:01:32;;;;;;;15.30;5.53;;;8.10;99.90;;;;;;5080819;28;20020;-64
2021/12/14 10:04:08;;;;;;;18.08;5.82;;;8.10;99.90;;;;;;5067272;28;20020;-64
2021/12/14 10:06:34;;;;;;;19.80;5.68;;;8.20;99.90;;;;;;5075272;28;20025;-64
2021/12/14 10:09:10;;;;;;;11.85;4.40;;;8.10;99.90;;;;;;5072593;28;20028;-64
2021/12/14 10:14:14;;;;;;;14.98;4.97;;;8.20;99.90;;;;;;5066267;28;20492;-65
2021/12/14 10:16:40;;;;;;;12.75;4.55;;;8.20;99.90;;;;;;5075745;28;20024;-64
2021/12/14 10:19:12;;;;;;;13.10;4.38;;;8.20;99.90;;;;;;5072384;28;20048;-64
2021/12/14 10:22:08;;;;;;;10.93;6.03;;;8.20;99.90;;;;;;5075264;28;20035;-64
2021/12/14 10:24:34;;;;;;;14.10;5.57;;;8.30;99.90;;;;;;5070211;28;20052;-64
2021/12/14 10:27:03;;;;;;;13.68;5.80;;;8.20;99.90;;;;;;5070328;28;20021;-64
2021/12/14 10:29:29;;;;;;;12.93;4.83;;;8.20;99.90;;;;;;5066730;28;20027;-64
2021/12/14 10:32:06;;;;;;;11.77;4.65;;;8.20;99.90;;;;;;5074115;28;20085;-64
2021/12/14 10:34:41;;;;;;;12.30;5.00;;;8.30;99.90;;;;;;5068444;28;20100;-64
2021/12/14 10:37:17;;;;;;;12.50;5.30;;;8.30;99.90;;;;;;5070879;28;20395;-64
2021/12/14 10:45:15;;;;;;;16.42;6.07;;;8.40;99.90;;;;;;5073247;28;20046;-64
2021/12/14 10:47:41;;;;;;;9.73;5.72;;;8.40;99.90;;;;;;5069609;28;20032;-64
2021/12/14 10:50:12;;;;;;;16.30;5.22;;;8.30;99.90;;;;;;5077782;28;20024;-64
2021/12/14 10:52:42;;;;;;;13.52;5.22;;;8.30;99.90;;;;;;5067281;28;20099;-64
2021/12/14 10:55:12;;;;;;;11.32;4.68;;;8.40;99.90;;;;;;5066030;28;20021;-64
2021/12/14 10:57:38;;;;;;;12.40;4.60;;;8.40;99.90;;;;;;5075253;28;20032;-64
2021/12/14 11:00:11;;;;;;;21.63;6.15;;;8.40;99.90;;;;;;5070468;28;20020;-64
2021/12/14 11:02:41;;;;;;;8.57;3.58;;;8.50;99.90;;;;;;5073936;28;20401;-63
2021/12/14 11:05:15;;;;;;;9.18;3.08;;;8.50;99.90;;;;;;5073590;28;20013;-63
2021/12/14 11:07:43;;;;;;;17.05;6.07;;;8.50;99.90;;;;;;5065529;28;20446;-64
2021/12/14 11:10:14;;;;;;;18.00;5.85;;;8.50;99.90;;;;;;5070209;28;20387;-64
2021/12/14 11:12:44;;;;;;;13.75;5.15;;;8.60;99.90;;;;;;5079591;28;20051;-64
2021/12/14 11:15:35;;;;;;;13.10;5.13;;;8.70;99.90;;;;;;5073762;28;20020;-64
2021/12/14 11:18:10;;;;;;;16.23;5.53;;;8.80;99.90;;;;;;5068729;28;20515;-64
2021/12/14 11:20:41;;;;;;;17.42;5.45;;;8.70;99.90;;;;;;5070511;28;20028;-64
2021/12/14 11:23:30;;;;;;;14.55;5.28;;;8.80;99.90;;;;;;5079332;28;20344;-64
2021/12/14 11:26:23;;;;;;;13.13;4.25;;;9.00;99.90;;;;;;5068814;28;20383;-64
2021/12/14 11:28:55;;;;;;;24.90;5.00;;;9.20;99.90;;;;;;5072006;28;20052;-64
2021/12/14 11:31:27;;;;;;;20.08;6.25;;;9.20;99.90;;;;;;5073129;28;20020;-65
2021/12/14 11:33:59;;;;;;;16.35;4.25;;;9.10;99.90;;;;;;5074853;28;20102;-64
2021/12/14 11:36:33;;;;;;;14.27;4.25;;;9.20;99.90;;;;;;5070655;28;20116;-64
2021/12/14 11:39:11;;;;;;;19.20;5.32;;;9.30;99.90;;;;;;5069677;28;20028;-64
2021/12/14 11:41:37;;;;;;;13.80;5.72;;;9.30;99.90;;;;;;5067032;28;20484;-64
2021/12/14 11:44:11;;;;;;;10.82;4.07;;;9.40;99.90;;;;;;5068003;28;20023;-64
2021/12/14 11:46:55;;;;;;;17.38;5.32;;;9.50;99.90;;;;;;5065899;28;20414;-64
2021/12/14 11:49:24;;;;;;;13.30;4.70;;;9.50;99.90;;;;;;5070863;28;20100;-64
2021/12/14 11:51:51;;;;;;;16.25;5.38;;;9.70;99.90;;;;;;5071349;28;20035;-64
2021/12/14 11:54:19;;;;;;;10.45;4.68;;;9.80;99.90;;;;;;5064015;28;20424;-64
2021/12/14 11:56:45;;;;;;;8.27;3.00;;;9.70;99.90;;;;;;5073201;28;20032;-63
2021/12/14 11:59:11;;;;;;;11.43;4.10;;;9.50;99.90;;;;;;5066289;28;20035;-64
2021/12/14 12:01:46;;;;;;;12.85;4.93;;;9.50;99.90;;;;;;5064617;28;20044;-64
2021/12/14 12:04:34;;;;;;;20.17;3.92;;;9.50;99.90;;;;;;5067259;28;20387;-64
2021/12/14 12:09:40;;;;;;;12.35;4.50;;;9.70;99.90;;;;;;5070274;28;20032;-64
2021/12/14 12:12:09;;;;;;;15.45;5.20;;;9.80;99.90;;;;;;5075530;28;20105;-64
2021/12/14 12:14:41;;;;;;;17.23;4.95;;;9.90;99.90;;;;;;5072142;28;20031;-64
2021/12/14 12:17:46;;;;;;;21.60;5.47;;;9.90;99.90;;;;;;5066965;28;20566;-64
2021/12/14 12:20:35;;;;;;;11.30;4.30;;;10.10;99.90;;;;;;5070041;28;20028;-64
2021/12/14 12:23:03;;;;;;;14.45;5.95;;;10.10;99.90;;;;;;5068123;28;20421;-64
2021/12/14 12:25:43;;;;;;;15.52;4.68;;;10.10;99.90;;;;;;5075872;28;20032;-64
2021/12/14 12:28:16;;;;;;;13.65;5.00;;;10.10;99.90;;;;;;5074649;28;20169;-64
2021/12/14 12:30:47;;;;;;;15.52;5.10;;;10.00;99.90;;;;;;5074986;28;20435;-64
2021/12/14 12:33:25;;;;;;;6.97;3.25;;;10.00;99.90;;;;;;5075786;28;20021;-64
2021/12/14 12:36:11;;;;;;;15.38;3.95;;;9.90;99.90;;;;;;5074663;28;20020;-64
2021/12/14 12:39:07;;;;;;;13.48;3.85;;;10.00;99.90;;;;;;5074078;28;20026;-64
2021/12/14 12:41:46;;;;;;;14.75;4.38;;;9.90;99.90;;;;;;5068756;28;20124;-64
2021/12/14 12:44:15;;;;;;;9.98;3.75;;;9.90;99.90;;;;;;5067394;28;20016;-64
2021/12/14 12:47:20;;;;;;;24.67;5.88;;;9.80;99.90;;;;;;5069029;28;20031;-65
2021/12/14 12:49:52;;;;;;;17.52;5.40;;;9.90;99.90;;;;;;5071423;28;20041;-64
2021/12/14 12:52:26;;;;;;;14.15;5.30;;;9.90;99.90;;;;;;5067475;28;20107;-64
2021/12/14 12:55:13;;;;;;;16.30;5.00;;;10.00;99.90;;;;;;5069113;28;20036;-64
2021/12/14 12:57:46;;;;;;;13.63;3.92;;;10.00;99.90;;;;;;5082997;28;20399;-64
2021/12/14 13:00:24;;;;;;;14.27;5.72;;;9.80;99.90;;;;;;5073420;28;20044;-64
2021/12/14 13:03:05;;;;;;;10.38;4.25;;;9.80;99.90;;;;;;5076673;28;20032;-64
2021/12/14 13:05:43;;;;;;;13.38;4.00;;;9.80;99.90;;;;;;5070534;28;20103;-63
2021/12/14 13:08:33;;;;;;;13.25;5.20;;;9.80;99.90;;;;;;5078401;28;20029;-64
2021/12/14 13:11:10;;;;;;;15.77;5.00;;;9.70;99.90;;;;;;5071408;28;20028;-64
2021/12/14 13:13:47;;;;;;;10.27;3.55;;;9.70;99.90;;;;;;5084963;28;20452;-64
2021/12/14 13:16:22;;;;;;;15.20;4.90;;;9.70;99.90;;;;;;5075420;28;20107;-64
2021/12/14 13:19:11;;;;;;;11.88;4.85;;;9.80;99.90;;;;;;5068437;28;20471;-64
2021/12/14 13:21:46;;;;;;;18.95;5.13;;;9.80;99.90;;;;;;5074207;28;20099;-64
2021/12/14 13:24:12;;;;;;;8.60;3.88;;;9.80;99.90;;;;;;5073160;28;20017;-64
2021/12/14 13:26:37;;;;;;;10.13;3.35;;;9.60;99.90;;;;;;5071416;28;20032;-64
2021/12/14 13:29:29;;;;;;;15.82;5.38;;;9.50;99.90;;;;;;5087959;28;20033;-63
2021/12/14 13:32:23;;;;;;;8.50;3.67;;;9.30;99.90;;;;;;5070344;28;20070;-64
2021/12/14 13:34:54;;;;;;;11.20;3.92;;;9.20;99.90;;;;;;5048760;28;20032;-63
2021/12/14 13:37:26;;;;;;;8.02;2.25;;;9.20;99.90;;;;;;5081465;28;20024;-64
2021/12/14 13:39:53;;;;;;;20.33;6.28;;;9.20;99.90;;;;;;5077352;28;20021;-63
2021/12/14 13:42:33;;;;;;;14.18;4.72;;;9.10;99.90;;;;;;5085366;28;20085;-63
2021/12/14 13:45:00;;;;;;;10.52;3.83;;;9.10;99.90;;;;;;5077120;28;20013;-64
2021/12/14 13:47:28;;;;;;;20.20;5.97;;;9.10;99.90;;;;;;5073102;28;20086;-64
2021/12/14 13:49:57;;;;;;;14.93;5.05;;;9.20;99.90;;;;;;5070590;28;20115;-63
2021/12/14 13:52:23;;;;;;;9.00;3.90;;;9.10;99.90;;;;;;5077366;28;20021;-63
2021/12/14 13:55:07;;;;;;;14.82;4.53;;;9.10;99.90;;;;;;5072376;28;20473;-63
2021/12/14 13:57:34;;;;;;;17.85;5.13;;;9.00;99.90;;;;;;5073047;28;20017;-64
2021/12/14 14:00:01;;;;;;;15.75;5.63;;;9.00;99.90;;;;;;5070965;28;20016;-63
2021/12/14 14:02:27;;;;;;;6.75;3.60;;;9.10;99.90;;;;;;5072268;28;20054;-63